createdAt,value
2018-06-27T00:01:01.482Z,99.90
2018-06-27T00:03:29.638Z,99.90
2018-06-27T00:05:58.297Z,99.90
2018-06-27T00:08:26.941Z,99.90
2018-06-27T00:10:55.370Z,99.90
2018-06-27T00:13:23.981Z,99.90
2018-06-27T00:15:52.622Z,99.90
2018-06-27T00:18:20.909Z,99.90
2018-06-27T00:20:50.061Z,99.90
2018-06-27T00:23:18.685Z,99.90
2018-06-27T00:25:46.870Z,99.90
2018-06-27T00:28:16.269Z,99.90
2018-06-27T00:30:44.513Z,99.90
2018-06-27T00:33:12.641Z,99.90
2018-06-27T00:35:41.653Z,99.90
2018-06-27T00:38:15.066Z,99.90
2018-06-27T00:43:12.038Z,99.90
2018-06-27T00:45:45.411Z,99.90
2018-06-27T00:48:13.479Z,99.90
2018-06-27T00:50:41.576Z,99.90
2018-06-27T00:53:10.491Z,99.90
2018-06-27T00:58:07.297Z,99.90
2018-06-27T01:00:35.606Z,99.90
2018-06-27T01:03:03.755Z,99.90
2018-06-27T01:05:33.712Z,99.90
2018-06-27T01:08:02.444Z,99.90
2018-06-27T01:10:30.565Z,99.90
2018-06-27T01:12:58.717Z,99.90
2018-06-27T01:15:28.858Z,99.90
2018-06-27T01:20:27.225Z,99.90
2018-06-27T01:22:55.898Z,99.90
2018-06-27T01:25:24.618Z,99.90
2018-06-27T01:27:53.183Z,99.90
2018-06-27T01:30:21.338Z,99.90
2018-06-27T01:32:49.552Z,99.90
2018-06-27T01:35:18.180Z,99.90
2018-06-27T01:37:46.492Z,99.90
2018-06-27T01:40:14.570Z,99.90
2018-06-27T01:42:43.445Z,99.90
2018-06-27T01:45:11.518Z,99.90
2018-06-27T01:47:40.881Z,99.90
2018-06-27T01:50:09.483Z,99.90
2018-06-27T01:52:37.998Z,99.90
2018-06-27T01:55:06.145Z,99.90
2018-06-27T01:57:34.705Z,99.90
2018-06-27T02:00:03.771Z,99.90
2018-06-27T02:02:33.137Z,99.90
2018-06-27T02:05:02.024Z,99.90
2018-06-27T02:07:30.114Z,99.90
2018-06-27T02:09:58.258Z,99.90
2018-06-27T02:12:26.341Z,99.90
2018-06-27T02:14:55.249Z,99.90
2018-06-27T02:17:24.462Z,99.90
2018-06-27T02:22:20.702Z,99.90
2018-06-27T02:24:49.233Z,99.90
2018-06-27T02:29:46.337Z,99.90
2018-06-27T02:32:14.403Z,99.90
2018-06-27T02:34:42.978Z,99.90
2018-06-27T02:37:11.871Z,99.90
2018-06-27T02:39:40.678Z,99.90
2018-06-27T02:42:08.845Z,99.90
2018-06-27T02:44:37.998Z,99.90
2018-06-27T02:47:06.620Z,99.90
2018-06-27T02:49:34.881Z,99.90
2018-06-27T02:52:03.846Z,99.90
2018-06-27T02:57:00.086Z,99.90
2018-06-27T03:01:56.447Z,99.90
2018-06-27T03:06:57.648Z,99.90
2018-06-27T03:09:25.717Z,99.90
2018-06-27T03:11:54.015Z,99.90
2018-06-27T03:14:22.577Z,99.90
2018-06-27T03:19:20.117Z,99.90
2018-06-27T03:21:48.196Z,99.90
2018-06-27T03:24:17.241Z,99.90
2018-06-27T03:26:45.517Z,99.90
2018-06-27T03:29:15.467Z,99.90
2018-06-27T03:34:12.209Z,99.90
2018-06-27T03:36:40.514Z,99.90
2018-06-27T03:41:38.496Z,99.90
2018-06-27T03:46:36.670Z,99.90
2018-06-27T03:49:05.293Z,99.90
2018-06-27T03:51:33.511Z,99.90
2018-06-27T03:54:02.170Z,99.90
2018-06-27T03:56:30.415Z,99.90
2018-06-27T03:58:59.059Z,99.90
2018-06-27T04:01:27.727Z,99.90
2018-06-27T04:03:56.281Z,99.90
2018-06-27T04:06:24.689Z,99.90
2018-06-27T04:08:52.917Z,99.90
2018-06-27T04:13:49.214Z,99.90
2018-06-27T04:16:18.109Z,99.90
2018-06-27T04:18:46.264Z,99.90
2018-06-27T04:21:14.458Z,99.90
2018-06-27T04:23:43.292Z,99.90
2018-06-27T04:26:11.998Z,99.90
2018-06-27T04:28:41.258Z,99.90
2018-06-27T04:31:10.090Z,99.90
2018-06-27T04:33:38.362Z,99.90
2018-06-27T04:36:08.188Z,99.90
2018-06-27T04:38:36.174Z,99.90
2018-06-27T04:41:04.393Z,99.90
2018-06-27T04:43:32.473Z,99.90
2018-06-27T04:46:00.558Z,99.90
2018-06-27T04:49:53.709Z,99.90
2018-06-27T04:54:50.243Z,99.90
2018-06-27T04:57:18.398Z,99.90
2018-06-27T04:59:47.195Z,99.90
2018-06-27T05:02:16.090Z,99.90
2018-06-27T05:04:44.987Z,99.90
2018-06-27T05:07:13.062Z,99.90
2018-06-27T05:09:42.454Z,99.90
2018-06-27T05:12:11.284Z,99.90
2018-06-27T05:17:08.793Z,99.90
2018-06-27T05:19:41.682Z,99.90
2018-06-27T05:22:10.078Z,99.90
2018-06-27T05:24:38.322Z,99.90
2018-06-27T05:27:06.746Z,99.90
2018-06-27T05:32:03.182Z,99.90
2018-06-27T05:34:32.189Z,99.90
2018-06-27T05:37:01.052Z,99.90
2018-06-27T05:39:29.265Z,99.90
2018-06-27T05:41:58.365Z,99.90
2018-06-27T05:44:27.545Z,99.90
2018-06-27T05:46:56.138Z,99.90
2018-06-27T05:49:24.308Z,99.90
2018-06-27T05:51:52.451Z,99.90
2018-06-27T05:54:21.297Z,99.90
2018-06-27T05:59:17.499Z,99.90
2018-06-27T06:01:46.141Z,99.90
2018-06-27T06:04:15.392Z,99.90
2018-06-27T06:06:44.262Z,99.90
2018-06-27T06:09:13.070Z,99.90
2018-06-27T06:11:41.574Z,99.90
2018-06-27T06:14:11.070Z,99.90
2018-06-27T06:16:39.298Z,99.90
2018-06-27T06:19:07.519Z,99.90
2018-06-27T06:21:35.998Z,99.90
2018-06-27T06:24:04.134Z,99.90
2018-06-27T06:26:33.158Z,99.90
2018-06-27T07:51:00.982Z,99.90
2018-06-27T07:53:29.219Z,89.80
2018-06-27T07:58:26.341Z,87.80
2018-06-27T08:00:55.374Z,82.50
2018-06-27T08:03:23.514Z,87.40
2018-06-27T08:05:52.043Z,85.00
2018-06-27T08:08:20.750Z,83.60
2018-06-27T08:10:48.974Z,85.80
2018-06-27T08:13:17.697Z,87.60
2018-06-27T08:18:13.995Z,77.70
2018-06-27T08:20:43.381Z,88.20
2018-06-27T08:25:45.908Z,86.80
2018-06-27T08:28:14.064Z,81.00
2018-06-27T08:30:42.263Z,87.60
2018-06-27T08:38:07.276Z,80.60
2018-06-27T08:40:36.710Z,83.70
2018-06-27T08:43:05.639Z,79.50
2018-06-27T08:50:30.632Z,77.50
2018-06-27T08:52:58.750Z,78.20
2018-06-27T08:55:27.638Z,78.60
2018-06-27T08:57:55.947Z,69.20
2018-06-27T09:00:24.290Z,71.70
2018-06-27T09:02:52.610Z,79.30
2018-06-27T09:05:20.802Z,73.90
2018-06-27T09:07:48.959Z,78.80
2018-06-27T09:10:19.441Z,68.10
2018-06-27T09:17:44.926Z,66.20
2018-06-27T09:20:13.244Z,68.80
2018-06-27T09:22:41.310Z,65.00
2018-06-27T09:25:41.047Z,60.10
2018-06-27T09:30:38.634Z,64.00
2018-06-27T09:33:07.191Z,57.20
2018-06-27T09:38:03.858Z,57.70
2018-06-27T09:43:01.064Z,58.70
2018-06-27T09:45:29.345Z,54.80
2018-06-27T09:47:59.249Z,53.30
2018-06-27T09:50:27.801Z,55.60
2018-06-27T09:52:56.752Z,53.00
2018-06-27T09:55:25.638Z,53.50
2018-06-27T09:57:54.692Z,56.20
2018-06-27T10:02:56.311Z,48.80
2018-06-27T10:05:25.354Z,50.00
2018-06-27T10:12:51.170Z,47.70
2018-06-27T10:15:19.526Z,53.00
2018-06-27T10:17:47.599Z,46.10
2018-06-27T10:20:15.815Z,44.80
2018-06-27T10:22:44.691Z,51.60
2018-06-27T10:25:13.487Z,45.60
2018-06-27T10:27:42.201Z,47.50
2018-06-27T10:30:11.421Z,48.60
2018-06-27T10:32:39.526Z,49.70
2018-06-27T10:35:07.760Z,46.90
2018-06-27T10:40:04.593Z,49.00
2018-06-27T10:42:33.574Z,46.90
2018-06-27T10:45:02.088Z,48.70
2018-06-27T10:49:58.441Z,47.30
2018-06-27T10:54:56.499Z,43.40
2018-06-27T10:57:24.689Z,46.90
2018-06-27T10:59:54.038Z,48.50
2018-06-27T11:02:22.623Z,44.20
2018-06-27T11:04:51.474Z,45.80
2018-06-27T11:07:20.289Z,50.20
2018-06-27T11:09:51.634Z,47.00
2018-06-27T11:12:20.693Z,46.80
2018-06-27T11:14:49.662Z,53.10
2018-06-27T11:17:18.162Z,49.90
2018-06-27T11:19:46.603Z,52.00
2018-06-27T11:22:14.870Z,47.40
2018-06-27T11:24:43.126Z,44.60
2018-06-27T11:29:39.322Z,44.10
2018-06-27T11:32:07.580Z,46.30
2018-06-27T11:34:35.806Z,47.60
2018-06-27T11:37:03.982Z,46.60
2018-06-27T11:42:00.445Z,42.30
2018-06-27T11:44:28.708Z,42.30
2018-06-27T11:46:57.030Z,43.60
2018-06-27T11:49:25.413Z,41.00
2018-06-27T11:51:54.018Z,42.70
2018-06-27T11:54:22.450Z,41.60
2018-06-27T11:56:51.648Z,38.40
2018-06-27T11:59:20.090Z,39.80
2018-06-27T12:01:48.278Z,40.00
2018-06-27T12:04:17.242Z,39.60
2018-06-27T12:06:45.655Z,41.00
2018-06-27T12:09:15.053Z,39.60
2018-06-27T12:11:43.273Z,38.60
2018-06-27T12:14:11.529Z,38.50
2018-06-27T12:16:40.429Z,40.10
2018-06-27T12:19:09.192Z,41.60
2018-06-27T12:21:37.338Z,40.70
2018-06-27T12:24:05.558Z,45.70
2018-06-27T12:29:01.641Z,43.40
2018-06-27T12:31:30.331Z,41.60
2018-06-27T12:33:58.498Z,42.30
2018-06-27T12:36:27.104Z,40.30
2018-06-27T12:38:55.506Z,44.30
2018-06-27T12:41:24.017Z,44.20
2018-06-27T12:46:21.470Z,42.90
2018-06-27T12:48:49.662Z,40.00
2018-06-27T12:51:17.818Z,39.80
2018-06-27T12:53:46.351Z,42.10
2018-06-27T12:56:15.333Z,40.20
2018-06-27T13:01:12.286Z,45.20
2018-06-27T13:08:37.174Z,41.30
2018-06-27T13:11:05.662Z,42.30
2018-06-27T13:13:34.009Z,45.20
2018-06-27T13:16:02.130Z,41.30
2018-06-27T13:18:31.596Z,44.50
2018-06-27T13:21:00.498Z,46.50
2018-06-27T13:23:29.962Z,46.10
2018-06-27T13:33:23.119Z,45.90
2018-06-27T13:35:51.305Z,44.50
2018-06-27T13:38:19.522Z,44.00
2018-06-27T13:43:16.596Z,44.50
2018-06-27T13:45:44.753Z,46.70
2018-06-27T13:48:12.945Z,42.90
2018-06-27T13:53:10.257Z,45.60
2018-06-27T13:55:38.354Z,45.60
2018-06-27T13:58:06.727Z,44.90
2018-06-27T14:00:34.878Z,44.40
2018-06-27T14:03:03.028Z,45.60
2018-06-27T14:05:32.062Z,44.20
2018-06-27T14:08:00.226Z,44.50
2018-06-27T14:10:28.395Z,47.40
2018-06-27T14:12:56.538Z,46.60
2018-06-27T14:15:24.619Z,47.50
2018-06-27T14:17:53.021Z,45.70
2018-06-27T14:20:21.910Z,45.10
2018-06-27T14:22:51.034Z,44.20
2018-06-27T14:25:19.229Z,45.30
2018-06-27T14:27:47.419Z,45.90
2018-06-27T14:32:43.610Z,44.60
2018-06-27T14:35:11.686Z,46.80
2018-06-27T14:37:41.152Z,46.20
2018-06-27T14:40:09.506Z,45.10
2018-06-27T14:42:37.914Z,49.10
2018-06-27T14:47:34.486Z,48.50
2018-06-27T14:50:02.967Z,51.10
2018-06-27T14:52:31.290Z,48.00
2018-06-27T14:54:59.900Z,47.40
2018-06-27T14:57:29.358Z,50.30
2018-06-27T14:59:57.774Z,48.80
2018-06-27T15:04:54.965Z,50.30
2018-06-27T15:07:22.894Z,49.20
2018-06-27T15:09:51.098Z,48.40
2018-06-27T15:19:44.965Z,54.80
2018-06-27T15:22:14.057Z,53.40
2018-06-27T15:24:42.590Z,54.70
2018-06-27T15:27:10.943Z,53.90
2018-06-27T15:29:39.533Z,55.10
2018-06-27T15:32:09.069Z,55.90
2018-06-27T15:34:37.313Z,57.10
2018-06-27T15:37:06.109Z,57.80
2018-06-27T15:39:34.258Z,58.10
2018-06-27T15:42:03.083Z,58.10
2018-06-27T15:44:31.359Z,61.50
2018-06-27T15:47:00.048Z,58.70
2018-06-27T15:49:28.419Z,59.50
2018-06-27T15:51:56.668Z,61.10
2018-06-27T15:54:25.686Z,60.70
2018-06-27T15:56:53.838Z,60.40
2018-06-27T15:59:21.902Z,60.50
2018-06-27T16:01:50.733Z,64.20
2018-06-27T16:04:18.845Z,67.00
2018-06-27T16:11:43.787Z,69.60
2018-06-27T16:14:11.766Z,65.70
2018-06-27T16:16:39.971Z,65.10
2018-06-27T16:19:08.463Z,68.10
2018-06-27T16:21:37.171Z,66.80
2018-06-27T16:26:33.631Z,69.10
2018-06-27T16:38:54.299Z,72.70
2018-06-27T16:46:19.494Z,73.80
2018-06-27T16:48:47.578Z,76.40
2018-06-27T16:51:16.351Z,78.00
2018-06-27T16:53:45.130Z,78.00
2018-06-27T16:56:13.188Z,78.90
2018-06-27T16:58:41.931Z,79.90
2018-06-27T17:01:10.034Z,79.50
2018-06-27T17:03:38.047Z,79.90
2018-06-27T17:06:06.522Z,81.40
2018-06-27T17:08:35.338Z,80.60
2018-06-27T17:11:04.029Z,81.70
2018-06-27T17:13:33.078Z,81.80
2018-06-27T17:16:01.602Z,81.30
2018-06-27T17:18:29.849Z,83.80
2018-06-27T17:20:58.585Z,84.80
2018-06-27T17:25:54.990Z,84.10
2018-06-27T17:28:24.013Z,85.30
2018-06-27T17:30:52.595Z,86.30
2018-06-27T17:33:20.986Z,88.50
2018-06-27T17:35:50.509Z,89.10
2018-06-27T17:40:48.397Z,88.60
2018-06-27T17:45:45.446Z,89.80
2018-06-27T17:48:13.583Z,90.50
2018-06-27T17:50:42.398Z,90.50
2018-06-27T17:53:10.974Z,90.90
2018-06-27T17:55:39.153Z,91.20
2018-06-27T17:58:07.305Z,91.00
2018-06-27T18:00:36.838Z,91.50
2018-06-27T18:03:05.370Z,91.50
2018-06-27T18:05:33.611Z,91.70
2018-06-27T18:08:01.741Z,92.60
2018-06-27T18:10:30.638Z,93.10
2018-06-27T18:12:58.818Z,92.80
2018-06-27T18:15:27.227Z,93.00
2018-06-27T18:20:23.334Z,94.10
2018-06-27T18:22:52.751Z,93.90
2018-06-27T18:25:20.821Z,94.30
2018-06-27T18:27:49.526Z,94.40
2018-06-27T18:30:18.286Z,94.80
2018-06-27T18:32:47.326Z,95.40
2018-06-27T18:35:15.414Z,95.80
2018-06-27T18:40:12.223Z,96.00
2018-06-27T18:42:41.823Z,96.20
2018-06-27T18:45:10.982Z,96.70
2018-06-27T18:50:08.296Z,97.40
2018-06-27T18:52:36.687Z,97.70
2018-06-27T18:55:05.142Z,98.20
2018-06-27T18:57:34.201Z,98.50
2018-06-27T19:00:03.142Z,99.00
2018-06-27T19:02:32.421Z,99.10
2018-06-27T19:05:00.843Z,99.60
2018-06-27T19:07:29.639Z,99.90
2018-06-27T19:09:57.954Z,99.90
2018-06-27T19:12:26.870Z,99.90
2018-06-27T19:14:55.801Z,99.90
2018-06-27T19:17:24.197Z,99.90
2018-06-27T19:19:53.458Z,99.90
2018-06-27T19:22:21.625Z,99.90
2018-06-27T19:24:49.882Z,99.90
2018-06-27T19:27:18.326Z,99.90
2018-06-27T19:29:47.470Z,99.90
2018-06-27T19:32:16.178Z,99.90
2018-06-27T19:34:44.750Z,99.90
2018-06-27T19:37:13.517Z,99.90
2018-06-27T19:39:41.717Z,99.90
2018-06-27T19:42:09.785Z,99.90
2018-06-27T19:44:38.733Z,99.90
2018-06-27T19:47:06.840Z,99.90
2018-06-27T19:49:35.694Z,99.90
2018-06-27T21:14:01.932Z,99.90
2018-06-27T21:16:30.126Z,99.90
2018-06-27T21:18:58.345Z,99.90
2018-06-27T21:23:54.726Z,99.90
2018-06-27T21:26:23.451Z,99.90
2018-06-27T21:28:51.750Z,99.90
2018-06-27T21:31:19.965Z,99.90
2018-06-27T21:33:48.797Z,99.90
2018-06-27T21:36:17.426Z,99.90
2018-06-27T21:38:46.382Z,99.90
2018-06-27T21:41:14.733Z,99.90
2018-06-27T21:43:44.490Z,99.90
2018-06-27T21:46:13.178Z,99.90
2018-06-27T21:48:42.330Z,99.90
2018-06-27T21:51:10.431Z,99.90
2018-06-27T21:53:39.450Z,99.90
2018-06-27T21:56:08.414Z,99.90
2018-06-27T21:58:37.070Z,99.90
2018-06-27T22:01:05.362Z,99.90
2018-06-27T22:03:33.890Z,99.90
2018-06-27T22:06:02.627Z,99.90
2018-06-27T22:08:30.682Z,99.90
2018-06-27T22:10:59.385Z,99.90
2018-06-27T22:13:29.461Z,99.90
2018-06-27T22:18:25.966Z,99.90
2018-06-27T22:20:54.133Z,99.90
2018-06-27T22:23:22.358Z,99.90
2018-06-27T22:25:50.526Z,99.90
2018-06-27T22:28:18.682Z,99.90
2018-06-27T22:30:47.737Z,99.90
2018-06-27T22:33:16.106Z,99.90
2018-06-27T22:35:44.566Z,99.90
2018-06-27T22:40:41.917Z,99.90
2018-06-27T22:43:09.978Z,99.90
2018-06-27T22:45:38.973Z,99.90
2018-06-27T22:48:07.049Z,99.90
2018-06-27T22:50:35.919Z,99.90
2018-06-27T22:53:04.854Z,99.90
2018-06-27T22:58:02.197Z,99.90
2018-06-27T23:00:30.475Z,99.90
2018-06-27T23:02:58.598Z,99.90
2018-06-27T23:05:26.742Z,99.90
2018-06-27T23:10:23.098Z,99.90
2018-06-27T23:12:51.234Z,99.90
2018-06-27T23:15:19.299Z,99.90
2018-06-27T23:17:47.517Z,99.90
2018-06-27T23:20:16.067Z,99.90
2018-06-27T23:22:50.801Z,99.90
2018-06-27T23:25:19.800Z,99.90
2018-06-27T23:27:49.029Z,99.90
2018-06-27T23:30:18.330Z,99.90
2018-06-27T23:35:14.314Z,99.90
2018-06-27T23:37:42.447Z,99.90
2018-06-27T23:45:08.382Z,99.90
2018-06-27T23:50:05.334Z,99.90
2018-06-27T23:52:33.722Z,99.90
2018-06-27T23:55:01.869Z,99.90
2018-06-27T23:57:30.064Z,99.90
2018-06-27T23:59:58.470Z,99.90
